Time;durP1;ratioP1;P1;durP2;ratioP2;P2;SDS_P1;SDS_P2;PMS_P1;PMS_P2;Temp;Humidity;BMP_temperature;BMP_pressure;BME280_temperature;BME280_humidity;BME280_pressure;Samples;Min_cycle;Max_cycle;Signal;HPM_P1;HPM_P2
2022/03/15 00:00:12;;;;;;;11.77;3.70;;;;;;;7.98;77.30;102738.59;5048741;28;20048;-49
2022/03/15 00:02:37;;;;;;;19.25;3.60;;;;;;;7.97;77.47;102725.28;5036997;28;20517;-46
2022/03/15 00:05:03;;;;;;;11.25;3.80;;;;;;;7.96;77.49;102723.59;5051584;28;20339;-46
2022/03/15 00:07:28;;;;;;;12.75;3.58;;;;;;;7.91;77.79;102729.28;5049279;28;20180;-48
2022/03/15 00:09:53;;;;;;;13.85;3.70;;;;;;;7.89;77.99;102723.19;5033493;28;20033;-47
2022/03/15 00:12:19;;;;;;;13.15;4.03;;;;;;;7.87;77.88;102725.13;5037203;28;20036;-45
2022/03/15 00:14:44;;;;;;;9.98;3.00;;;;;;;7.83;77.64;102718.31;5053307;28;20538;-46
2022/03/15 00:17:11;;;;;;;16.85;3.35;;;;;;;7.82;78.28;102713.91;5053460;28;20037;-44
2022/03/15 00:19:36;;;;;;;20.00;4.28;;;;;;;7.79;78.25;102706.94;5052810;28;20033;-46
2022/03/15 00:22:04;;;;;;;11.57;3.60;;;;;;;7.77;78.26;102708.91;5052763;28;20033;-46
2022/03/15 00:24:29;;;;;;;14.25;3.65;;;;;;;7.73;78.04;102703.91;5052655;28;20075;-47
2022/03/15 00:26:54;;;;;;;11.88;3.13;;;;;;;7.72;78.35;102702.22;5052968;28;20488;-48
2022/03/15 00:29:22;;;;;;;9.55;3.70;;;;;;;7.67;78.34;102702.56;5052476;28;20044;-48
2022/03/15 00:31:47;;;;;;;9.93;3.28;;;;;;;7.63;78.50;102706.44;5052418;28;20029;-47
2022/03/15 00:34:13;;;;;;;9.93;3.08;;;;;;;7.58;78.64;102709.47;5051615;28;20040;-50
2022/03/15 00:36:38;;;;;;;14.45;3.80;;;;;;;7.51;78.40;102710.91;5051851;28;20078;-48
2022/03/15 00:39:04;;;;;;;9.00;3.58;;;;;;;7.40;78.51;102705.50;5052161;28;20477;-47
2022/03/15 00:41:30;;;;;;;14.80;3.50;;;;;;;7.38;79.23;102702.09;5052387;28;20039;-45
2022/03/15 00:43:55;;;;;;;16.13;3.67;;;;;;;7.36;79.10;102702.19;5051515;28;20041;-48
2022/03/15 00:46:20;;;;;;;14.20;3.60;;;;;;;7.34;79.13;102695.22;5050580;28;20136;-47
2022/03/15 00:48:46;;;;;;;11.07;2.83;;;;;;;7.30;79.15;102699.13;5051732;28;20056;-48
2022/03/15 00:51:11;;;;;;;14.70;3.97;;;;;;;7.28;79.69;102701.06;5052486;28;20420;-47
2022/03/15 00:53:37;;;;;;;6.53;2.65;;;;;;;7.24;79.51;102701.28;5051921;28;20468;-50
2022/03/15 00:56:02;;;;;;;10.82;3.08;;;;;;;7.19;79.58;102699.94;5051766;28;20029;-45
2022/03/15 00:58:28;;;;;;;12.10;2.90;;;;;;;7.13;79.25;102693.19;5054508;28;20060;-49
2022/03/15 01:00:54;;;;;;;11.75;2.85;;;;;;;7.11;79.77;102700.50;5056564;28;20060;-49
2022/03/15 01:03:19;;;;;;;9.18;3.22;;;;;;;7.08;79.96;102689.16;5055820;28;20021;-47
2022/03/15 01:05:45;;;;;;;22.92;3.63;;;;;;;7.08;80.10;102692.66;5055270;28;20087;-47
2022/03/15 01:08:10;;;;;;;10.20;3.10;;;;;;;7.07;80.14;102695.47;5055205;28;20051;-45
2022/03/15 01:10:36;;;;;;;11.05;3.08;;;;;;;7.04;79.52;102694.72;5056365;28;20661;-46
2022/03/15 01:13:01;;;;;;;9.95;3.13;;;;;;;7.02;79.49;102693.13;5054310;28;20033;-46
2022/03/15 01:15:26;;;;;;;17.92;3.78;;;;;;;7.03;79.94;102690.34;5046120;28;20022;-46
2022/03/15 01:17:52;;;;;;;12.95;2.88;;;;;;;7.06;80.16;102681.25;5055301;28;20025;-47
2022/03/15 01:20:18;;;;;;;14.00;3.22;;;;;;;7.07;79.94;102680.25;5055745;28;20021;-46
2022/03/15 01:22:43;;;;;;;13.18;3.50;;;;;;;7.07;80.28;102680.25;5056080;28;20045;-45
2022/03/15 01:25:09;;;;;;;14.32;2.97;;;;;;;7.06;79.98;102678.56;5055474;28;20426;-45
2022/03/15 01:27:34;;;;;;;9.82;3.10;;;;;;;7.07;80.58;102671.38;5055255;28;20532;-45
2022/03/15 01:30:00;;;;;;;17.45;3.28;;;;;;;7.06;80.27;102669.66;5054046;28;20037;-45
2022/03/15 01:32:25;;;;;;;12.75;3.22;;;;;;;7.07;80.10;102666.03;5054640;28;20021;-49
2022/03/15 01:34:51;;;;;;;8.45;2.65;;;;;;;7.09;80.32;102664.94;5054654;28;20033;-44
2022/03/15 01:37:16;;;;;;;12.85;3.25;;;;;;;7.10;80.05;102653.25;5055159;28;20053;-45
2022/03/15 01:39:41;;;;;;;12.65;3.20;;;;;;;7.12;80.28;102653.16;5050449;28;20994;-45
2022/03/15 01:42:07;;;;;;;12.88;3.60;;;;;;;7.12;80.15;102645.97;5035588;28;20029;-47
2022/03/15 01:44:33;;;;;;;11.98;3.50;;;;;;;7.11;80.45;102654.97;5052058;28;20029;-45
2022/03/15 01:46:59;;;;;;;11.13;3.50;;;;;;;7.09;80.01;102653.38;5054200;28;20461;-44
2022/03/15 01:49:24;;;;;;;13.98;3.13;;;;;;;7.08;80.14;102655.19;5054043;28;20041;-44
2022/03/15 01:51:50;;;;;;;12.23;3.20;;;;;;;7.09;80.39;102648.88;5054557;28;20017;-48
2022/03/15 01:54:16;;;;;;;13.95;3.55;;;;;;;7.15;80.63;102652.91;5052291;28;20364;-45
2022/03/15 01:56:42;;;;;;;9.45;3.30;;;;;;;7.18;80.50;102648.19;5054492;28;20029;-47
2022/03/15 01:59:10;;;;;;;12.20;3.70;;;;;;;7.17;80.32;102646.47;5052682;28;20032;-49
2022/03/15 02:01:36;;;;;;;9.70;3.53;;;;;;;7.17;80.05;102646.47;5053448;28;20025;-46
2022/03/15 02:04:01;;;;;;;13.57;3.70;;;;;;;7.20;80.14;102653.44;5052767;28;20056;-45
2022/03/15 02:06:27;;;;;;;15.57;3.95;;;;;;;7.17;79.81;102646.47;5048571;28;20108;-47
2022/03/15 02:08:52;;;;;;;13.95;3.90;;;;;;;7.12;79.58;102643.28;5043622;28;20049;-48
2022/03/15 02:11:17;;;;;;;17.13;3.75;;;;;;;7.05;79.21;102636.69;5053661;28;20013;-46
2022/03/15 02:13:44;;;;;;;15.93;4.07;;;;;;;7.02;79.69;102631.56;5053343;28;20021;-46
2022/03/15 02:16:10;;;;;;;11.57;3.35;;;;;;;6.99;79.80;102632.63;5049728;28;20061;-47
2022/03/15 02:18:35;;;;;;;12.55;3.67;;;;;;;6.94;80.04;102629.44;5045484;28;20067;-46
2022/03/15 02:21:00;;;;;;;12.55;3.08;;;;;;;6.92;80.37;102626.03;5053521;28;20115;-47
2022/03/15 02:23:26;;;;;;;13.50;3.83;;;;;;;6.92;80.75;102622.50;5053436;28;20492;-45
2022/03/15 02:25:51;;;;;;;15.40;3.72;;;;;;;6.92;80.95;102626.03;5053201;28;20021;-46
2022/03/15 02:28:17;;;;;;;22.27;4.25;;;;;;;6.90;80.86;102621.75;5053672;28;20426;-47
2022/03/15 02:30:42;;;;;;;16.42;3.63;;;;;;;6.91;80.97;102618.13;5053232;28;20036;-47
2022/03/15 02:33:07;;;;;;;21.15;4.10;;;;;;;6.91;81.35;102618.13;5052942;28;20105;-46
2022/03/15 02:35:33;;;;;;;17.58;4.20;;;;;;;6.91;81.43;102623.47;5053434;28;20025;-47
2022/03/15 02:37:58;;;;;;;14.73;3.70;;;;;;;6.87;80.97;102622.00;5035983;28;20040;-48
2022/03/15 02:40:24;;;;;;;12.68;4.07;;;;;;;6.84;81.22;102619.53;5032020;28;20392;-46
2022/03/15 02:42:49;;;;;;;11.32;3.92;;;;;;;6.84;81.29;102608.84;5047683;28;20452;-47
2022/03/15 02:45:15;;;;;;;16.48;4.25;;;;;;;6.82;81.56;102606.31;5053522;28;20483;-47
2022/03/15 02:47:43;;;;;;;16.83;4.05;;;;;;;6.84;81.87;102603.50;5053350;28;20041;-45
2022/03/15 02:50:09;;;;;;;15.15;4.78;;;;;;;6.84;81.96;102607.00;5053281;28;20166;-48
2022/03/15 02:52:34;;;;;;;21.15;4.90;;;;;;;6.82;82.06;102599.13;5053024;28;20064;-47
2022/03/15 02:54:59;;;;;;;12.15;4.47;;;;;;;6.82;82.02;102599.13;5053273;28;20029;-45
2022/03/15 02:57:25;;;;;;;10.15;3.83;;;;;;;6.87;82.28;102597.91;5052409;28;20029;-47
2022/03/15 02:59:51;;;;;;;18.10;4.43;;;;;;;6.86;82.18;102589.03;5053271;28;20226;-44
2022/03/15 03:02:17;;;;;;;12.80;4.97;;;;;;;6.86;82.02;102598.88;5052527;28;20017;-49
2022/03/15 03:04:43;;;;;;;14.90;5.00;;;;;;;6.87;82.27;102596.06;5052540;28;20377;-46
2022/03/15 03:07:09;;;;;;;11.07;4.72;;;;;;;6.90;82.64;102603.91;5053165;28;20088;-48
2022/03/15 03:09:34;;;;;;;16.95;4.65;;;;;;;6.91;81.95;102602.06;5053875;28;20041;-49
2022/03/15 03:11:59;;;;;;;14.13;4.80;;;;;;;6.87;81.42;102606.78;5052711;28;20138;-45
2022/03/15 03:14:25;;;;;;;15.18;4.88;;;;;;;6.81;80.70;102605.41;5052579;28;20033;-46
2022/03/15 03:16:51;;;;;;;16.63;4.68;;;;;;;6.69;81.04;102595.66;5052154;28;20146;-45
2022/03/15 03:19:16;;;;;;;12.80;4.10;;;;;;;6.63;81.55;102598.75;5052277;28;20025;-51
2022/03/15 03:21:42;;;;;;;15.02;4.63;;;;;;;6.64;82.46;102600.47;5052278;28;20082;-48
2022/03/15 03:24:08;;;;;;;15.82;4.60;;;;;;;6.67;82.83;102589.53;5038157;28;20065;-49
2022/03/15 03:26:37;;;;;;;13.73;4.53;;;;;;;6.72;82.88;102590.06;5035747;28;20167;-49
2022/03/15 03:29:10;;;;;;;15.85;4.65;;;;;;;6.74;82.41;102585.47;5052094;28;20502;-47
2022/03/15 03:31:37;;;;;;;13.30;4.78;;;;;;;6.74;82.52;102585.47;5047221;28;20542;-48
2022/03/15 03:34:04;;;;;;;15.38;4.88;;;;;;;6.77;82.23;102593.25;5047115;28;20064;-46
2022/03/15 03:36:31;;;;;;;19.23;5.10;;;;;;;6.70;81.94;102585.78;5051726;28;20099;-46
2022/03/15 03:38:56;;;;;;;15.57;4.35;;;;;;;6.65;82.55;102583.44;5051439;28;20021;-44
2022/03/15 03:41:21;;;;;;;18.13;5.25;;;;;;;6.67;83.11;102575.31;5050284;28;20068;-48
2022/03/15 03:43:46;;;;;;;16.38;4.70;;;;;;;6.69;83.39;102582.25;5052078;28;20029;-46
2022/03/15 03:46:12;;;;;;;12.30;4.25;;;;;;;6.67;83.33;102576.16;5051430;28;20035;-45
2022/03/15 03:48:37;;;;;;;18.58;5.43;;;;;;;6.70;83.52;102583.97;5050348;28;20044;-45
2022/03/15 03:51:03;;;;;;;11.77;4.78;;;;;;;6.71;83.52;102585.66;5051534;28;20029;-45
2022/03/15 03:53:28;;;;;;;14.43;4.82;;;;;;;6.71;83.33;102582.97;5051185;28;20051;-46
2022/03/15 03:55:54;;;;;;;10.93;4.38;;;;;;;6.69;83.05;102587.63;5066480;28;20110;-46
2022/03/15 03:58:19;;;;;;;21.90;5.70;;;;;;;6.68;83.28;102580.53;5051236;28;20423;-45
2022/03/15 04:00:45;;;;;;;21.27;5.70;;;;;;;6.73;83.93;102583.72;5051349;28;20024;-47
2022/03/15 04:03:16;;;;;;;18.15;5.10;;;;;;;6.77;84.10;102590.56;5051221;28;20195;-46
2022/03/15 04:05:42;;;;;;;13.40;5.05;;;;;;;6.82;84.07;102585.75;5050800;28;20514;-46
2022/03/15 04:08:08;;;;;;;19.15;5.70;;;;;;;6.87;83.93;102579.16;5049557;28;20119;-44
2022/03/15 04:10:34;;;;;;;11.70;5.43;;;;;;;6.90;83.89;102579.81;5051338;28;20046;-45
2022/03/15 04:13:00;;;;;;;14.30;5.28;;;;;;;6.92;83.65;102582.34;5050857;28;20036;-47
2022/03/15 04:15:25;;;;;;;9.98;4.78;;;;;;;6.94;83.82;102577.75;5050166;28;20029;-47
2022/03/15 04:17:51;;;;;;;19.52;5.20;;;;;;;6.96;83.60;102578.50;5050899;28;20048;-45
2022/03/15 04:20:17;;;;;;;15.35;5.50;;;;;;;6.96;83.48;102574.00;5051181;28;20399;-48
2022/03/15 04:22:43;;;;;;;17.40;5.60;;;;;;;6.94;83.15;102572.41;5050942;28;20041;-44
2022/03/15 04:25:08;;;;;;;19.42;5.90;;;;;;;6.91;83.12;102570.81;5051462;28;20032;-45
2022/03/15 04:27:33;;;;;;;18.45;6.47;;;;;;;6.91;83.01;102575.31;5050934;28;20506;-45
2022/03/15 04:29:59;;;;;;;17.45;5.88;;;;;;;6.92;83.75;102571.66;5046061;28;20030;-46
2022/03/15 04:32:24;;;;;;;24.73;6.43;;;;;;;6.96;83.82;102570.47;5038202;28;20119;-46
2022/03/15 04:34:50;;;;;;;17.63;6.20;;;;;;;6.98;83.59;102571.22;5051400;28;20096;-46
2022/03/15 04:37:15;;;;;;;21.58;7.65;;;;;;;6.99;83.47;102570.22;5050106;28;20025;-46
2022/03/15 04:39:41;;;;;;;26.95;7.05;;;;;;;6.99;83.87;102573.75;5050798;28;20391;-47
2022/03/15 04:42:07;;;;;;;18.75;6.22;;;;;;;7.00;83.65;102569.25;5050143;28;20663;-45
2022/03/15 04:44:32;;;;;;;21.40;7.18;;;;;;;6.98;82.98;102571.22;5050460;28;20458;-46
2022/03/15 04:46:57;;;;;;;19.40;7.30;;;;;;;6.95;83.46;102564.25;5050583;28;20021;-47
2022/03/15 04:49:23;;;;;;;21.65;7.10;;;;;;;6.94;83.60;102559.00;5050598;28;20033;-47
2022/03/15 04:51:48;;;;;;;19.98;6.65;;;;;;;6.93;83.59;102560.00;5065741;28;20079;-46
2022/03/15 04:54:13;;;;;;;23.08;7.32;;;;;;;6.94;83.79;102554.50;5050721;28;20427;-45
2022/03/15 04:56:39;;;;;;;26.42;7.60;;;;;;;6.93;83.62;102552.81;5050531;28;20033;-46
2022/03/15 04:59:05;;;;;;;31.98;8.40;;;;;;;6.93;83.93;102555.50;5050129;28;20124;-45
2022/03/15 05:01:30;;;;;;;21.23;8.60;;;;;;;6.93;84.16;102546.59;5048957;28;20056;-45
2022/03/15 05:03:56;;;;;;;18.13;7.55;;;;;;;6.93;84.13;102546.59;5050133;28;20072;-45
2022/03/15 05:06:21;;;;;;;21.90;8.07;;;;;;;6.99;84.27;102543.47;5030314;28;20025;-45
2022/03/15 05:08:48;;;;;;;21.60;8.48;;;;;;;7.00;84.49;102545.16;5049975;28;20055;-44
2022/03/15 05:11:14;;;;;;;27.55;8.95;;;;;;;7.03;84.56;102537.75;5035810;28;20037;-45
2022/03/15 05:13:48;;;;;;;25.85;8.88;;;;;;;7.05;84.80;102534.94;5049593;28;20021;-44
2022/03/15 05:16:18;;;;;;;31.63;9.88;;;;;;;7.06;84.61;102536.66;5030923;28;20030;-46
2022/03/15 05:18:47;;;;;;;27.23;10.57;;;;;;;7.08;84.63;102534.69;5030835;28;20389;-45
2022/03/15 05:21:14;;;;;;;30.10;10.95;;;;;;;7.08;84.50;102524.00;5049903;28;20074;-46
2022/03/15 05:23:40;;;;;;;27.38;10.13;;;;;;;7.11;84.43;102520.22;5048320;28;20037;-45
2022/03/15 05:26:06;;;;;;;33.50;10.10;;;;;;;7.15;84.18;102519.03;5050044;28;20051;-45
2022/03/15 05:28:31;;;;;;;25.70;9.88;;;;;;;7.15;84.07;102519.03;5050473;28;20416;-44
2022/03/15 05:30:56;;;;;;;24.75;10.38;;;;;;;7.14;83.86;102512.84;5049851;28;20151;-46
2022/03/15 05:33:22;;;;;;;20.10;10.23;;;;;;;7.14;83.58;102512.84;5048748;28;20128;-45
2022/03/15 05:35:47;;;;;;;33.40;10.75;;;;;;;7.18;83.52;102508.94;5038462;28;20086;-47
2022/03/15 05:38:12;;;;;;;22.52;9.98;;;;;;;7.19;83.52;102510.66;5046059;28;20044;-46
2022/03/15 05:40:38;;;;;;;27.02;11.52;;;;;;;7.16;83.48;102508.22;5045779;28;20059;-47
2022/03/15 05:43:03;;;;;;;32.72;11.40;;;;;;;7.15;83.87;102516.34;5065264;28;20129;-47
2022/03/15 05:45:29;;;;;;;30.30;11.05;;;;;;;7.15;84.25;102513.69;5052264;28;20033;-47
2022/03/15 05:47:55;;;;;;;29.45;11.25;;;;;;;7.18;83.74;102508.94;5053312;28;20044;-45
2022/03/15 05:50:21;;;;;;;27.88;11.32;;;;;;;7.16;83.75;102502.88;5052355;28;20048;-45
2022/03/15 05:52:46;;;;;;;33.50;11.63;;;;;;;7.18;83.79;102502.72;5052578;28;20376;-45
2022/03/15 05:55:12;;;;;;;27.05;11.70;;;;;;;7.16;83.91;102505.53;5052524;28;20051;-46
2022/03/15 05:57:38;;;;;;;27.00;11.02;;;;;;;7.18;83.48;102502.72;5045138;28;20033;-44
2022/03/15 06:00:07;;;;;;;33.00;11.45;;;;;;;7.17;83.40;102498.34;5035806;28;20029;-48
2022/03/15 06:02:33;;;;;;;22.73;10.93;;;;;;;7.13;83.50;102495.03;5056537;28;20136;-44
2022/03/15 06:04:59;;;;;;;28.20;10.82;;;;;;;7.14;83.87;102495.94;5052997;28;20053;-47
2022/03/15 06:07:26;;;;;;;30.90;11.13;;;;;;;7.16;83.86;102486.81;5052437;28;20053;-46
2022/03/15 06:09:52;;;;;;;30.65;11.68;;;;;;;7.21;83.69;102494.44;5052512;28;20031;-47
2022/03/15 06:12:20;;;;;;;22.13;10.80;;;;;;;7.23;83.52;102490.69;5052557;28;20450;-45
2022/03/15 06:14:46;;;;;;;32.65;12.23;;;;;;;7.25;83.57;102493.25;5052942;28;20108;-47
2022/03/15 06:17:11;;;;;;;28.20;11.35;;;;;;;7.27;83.44;102496.69;5036302;28;20105;-49
2022/03/15 06:19:36;;;;;;;32.90;11.60;;;;;;;7.26;83.49;102490.44;5049982;28;20067;-47
2022/03/15 06:22:02;;;;;;;31.38;12.77;;;;;;;7.28;83.42;102489.50;5052723;28;20096;-44
2022/03/15 06:24:28;;;;;;;39.92;13.10;;;;;;;7.26;83.29;102487.75;5052060;28;20365;-46
2022/03/15 06:26:53;;;;;;;37.42;12.73;;;;;;;7.20;83.31;102496.28;5053333;28;20033;-45
2022/03/15 06:29:18;;;;;;;30.95;12.13;;;;;;;7.18;83.57;102492.03;5052538;28;20117;-46
2022/03/15 06:31:44;;;;;;;35.17;14.30;;;;;;;7.24;83.55;102502.25;5052500;28;20032;-49
2022/03/15 06:34:09;;;;;;;32.88;13.48;;;;;;;7.26;83.69;102501.16;5052472;28;20064;-45
2022/03/15 06:36:34;;;;;;;35.38;13.48;;;;;;;7.28;83.45;102500.19;5048847;28;20494;-46
2022/03/15 06:39:00;;;;;;;33.28;13.55;;;;;;;7.24;83.26;102503.13;5048779;28;20064;-45
2022/03/15 06:41:25;;;;;;;36.92;14.40;;;;;;;7.25;83.20;102494.09;5053926;28;20100;-46
2022/03/15 06:43:51;;;;;;;34.55;13.82;;;;;;;7.32;83.51;102496.28;5050887;28;20727;-45
2022/03/15 06:46:16;;;;;;;31.08;13.82;;;;;;;7.34;83.11;102487.16;5051138;28;20039;-45
2022/03/15 06:48:41;;;;;;;37.42;14.35;;;;;;;7.37;82.95;102486.06;5051022;28;20109;-44
2022/03/15 06:51:07;;;;;;;30.67;14.55;;;;;;;7.37;82.81;102484.28;5051974;28;20391;-44
2022/03/15 06:53:32;;;;;;;34.05;14.82;;;;;;;7.41;83.09;102488.41;5051629;28;20075;-43
2022/03/15 06:55:58;;;;;;;37.63;14.95;;;;;;;7.41;82.94;102491.06;5050691;28;20037;-45
2022/03/15 06:58:23;;;;;;;38.47;15.07;;;;;;;7.41;82.81;102476.84;5049696;28;20021;-46
2022/03/15 07:00:49;;;;;;;35.42;14.98;;;;;;;7.43;82.85;102480.25;5050761;28;20033;-45
2022/03/15 07:03:15;;;;;;;40.30;17.20;;;;;;;7.43;83.16;102485.59;5051272;28;20083;-46
2022/03/15 07:05:40;;;;;;;39.78;16.73;;;;;;;7.46;82.98;102482.69;5051608;28;20040;-46
2022/03/15 07:08:07;;;;;;;35.78;15.10;;;;;;;7.55;83.30;102481.09;5051451;28;20140;-46
2022/03/15 07:10:33;;;;;;;32.08;17.05;;;;;;;7.56;82.41;102480.13;5051721;28;20424;-46
2022/03/15 07:12:59;;;;;;;38.35;16.20;;;;;;;7.55;82.10;102478.41;5049358;28;20033;-48
2022/03/15 07:15:24;;;;;;;42.15;16.45;;;;;;;7.53;82.30;102481.22;5050963;28;20036;-47
2022/03/15 07:17:53;;;;;;;44.35;17.20;;;;;;;7.52;82.36;102476.81;5051458;28;20033;-46
2022/03/15 07:20:20;;;;;;;36.03;15.85;;;;;;;7.52;82.63;102474.16;5050957;28;20036;-46
2022/03/15 07:22:45;;;;;;;35.85;17.33;;;;;;;7.55;82.45;102473.91;5031722;28;20555;-45
2022/03/15 07:25:10;;;;;;;38.85;16.75;;;;;;;7.68;82.26;102463.06;5050053;28;20021;-47
2022/03/15 07:27:36;;;;;;;36.38;16.58;;;;;;;7.74;82.17;102472.44;5050944;28;20033;-44
2022/03/15 07:30:01;;;;;;;57.03;18.85;;;;;;;7.75;81.95;102474.16;5051384;28;20029;-46
2022/03/15 07:32:27;;;;;;;35.75;17.02;;;;;;;7.82;82.48;102468.19;5051748;28;20049;-46
2022/03/15 07:34:52;;;;;;;31.73;16.60;;;;;;;7.90;81.80;102467.56;5041396;28;20045;-45
2022/03/15 07:37:18;;;;;;;41.90;17.15;;;;;;;7.95;81.43;102472.53;5049045;28;20056;-47
2022/03/15 07:39:45;;;;;;;39.88;17.23;;;;;;;7.93;81.03;102478.03;5051704;28;20051;-46
2022/03/15 07:42:11;;;;;;;34.65;17.48;;;;;;;7.97;81.39;102484.81;5051563;28;20025;-48
2022/03/15 07:44:36;;;;;;;41.28;17.58;;;;;;;8.02;81.39;102487.13;5051930;28;20044;-45
2022/03/15 07:47:01;;;;;;;34.10;17.10;;;;;;;8.10;80.96;102480.16;5052278;28;20029;-46
2022/03/15 07:49:27;;;;;;;39.80;18.00;;;;;;;8.19;80.62;102483.94;5051895;28;20025;-46
2022/03/15 07:51:52;;;;;;;41.75;17.23;;;;;;;8.29;79.54;102484.91;5051554;28;20041;-45
2022/03/15 07:54:17;;;;;;;40.47;16.88;;;;;;;8.35;78.99;102478.16;5051901;28;20025;-45
2022/03/15 07:56:43;;;;;;;36.90;16.08;;;;;;;8.35;79.38;102483.53;5051808;28;20418;-46
2022/03/15 07:59:08;;;;;;;38.47;17.30;;;;;;;8.39;79.22;102465.34;5051521;28;20533;-46
2022/03/15 08:01:34;;;;;;;37.25;17.63;;;;;;;8.48;78.97;102462.78;5051709;28;20021;-45
2022/03/15 08:04:00;;;;;;;36.22;16.38;;;;;;;8.51;78.45;102467.03;5051638;28;20399;-45
2022/03/15 08:06:26;;;;;;;53.47;22.20;;;;;;;8.54;78.62;102467.63;5050791;28;20036;-45
2022/03/15 08:08:56;;;;;;;36.03;18.60;;;;;;;8.66;78.41;102470.25;5050652;28;20496;-50
2022/03/15 08:11:22;;;;;;;39.45;17.08;;;;;;;8.76;78.17;102468.50;5051532;28;20174;-45
2022/03/15 08:13:48;;;;;;;35.30;16.55;;;;;;;8.82;77.90;102469.78;5052058;28;20472;-47
2022/03/15 08:16:13;;;;;;;32.25;15.73;;;;;;;8.96;76.27;102473.00;5067033;28;20025;-47
2022/03/15 08:18:39;;;;;;;35.95;16.20;;;;;;;9.04;75.95;102480.41;5051555;28;20029;-48
2022/03/15 08:21:04;;;;;;;29.13;15.63;;;;;;;9.07;75.46;102473.94;5051880;28;20032;-46
2022/03/15 08:23:30;;;;;;;33.83;17.20;;;;;;;9.15;75.51;102476.81;5067608;28;20017;-46
2022/03/15 08:25:57;;;;;;;40.47;17.25;;;;;;;9.26;75.59;102476.72;5052499;28;20025;-47
2022/03/15 08:28:24;;;;;;;35.25;16.55;;;;;;;9.29;74.95;102476.44;5052893;28;20494;-45
2022/03/15 08:30:50;;;;;;;37.17;16.00;;;;;;;9.55;74.54;102473.31;5052107;28;20090;-48
2022/03/15 08:33:15;;;;;;;38.55;16.73;;;;;;;9.76;72.75;102479.47;5050911;28;20390;-46
2022/03/15 08:35:41;;;;;;;35.05;16.83;;;;;;;9.89;73.03;102477.41;5052780;28;20033;-48
2022/03/15 08:38:08;;;;;;;30.67;14.63;;;;;;;10.21;72.90;102480.88;5053466;28;20021;-49
2022/03/15 08:40:33;;;;;;;35.88;15.38;;;;;;;10.61;70.71;102480.81;5058570;28;20438;-45
2022/03/15 08:43:00;;;;;;;32.03;14.40;;;;;;;10.84;67.39;102478.63;5062134;28;20064;-45
2022/03/15 08:45:25;;;;;;;37.08;14.45;;;;;;;11.04;67.53;102470.53;5061345;28;20035;-46
2022/03/15 08:47:51;;;;;;;42.10;14.23;;;;;;;12.00;65.84;102474.69;5061192;28;20052;-47
2022/03/15 08:50:17;;;;;;;32.95;13.48;;;;;;;13.09;63.03;102471.81;5061694;28;20364;-46
2022/03/15 08:52:42;;;;;;;45.03;12.93;;;;;;;13.92;57.67;102476.66;5041097;28;20029;-48
2022/03/15 08:55:08;;;;;;;27.25;12.18;;;;;;;14.98;55.17;102473.25;5063596;28;20070;-47
2022/03/15 08:57:33;;;;;;;30.88;12.00;;;;;;;16.42;50.26;102473.00;5062790;28;20025;-46
2022/03/15 08:59:59;;;;;;;26.05;12.02;;;;;;;17.11;48.90;102462.09;5064096;28;20021;-47
2022/03/15 09:02:24;;;;;;;29.08;12.10;;;;;;;17.44;46.59;102469.06;5065428;28;20574;-46
2022/03/15 09:04:49;;;;;;;26.80;13.02;;;;;;;17.53;45.61;102462.47;5080749;28;20044;-46
2022/03/15 09:07:15;;;;;;;24.02;11.25;;;;;;;17.73;45.94;102462.75;5063969;28;20076;-46
2022/03/15 09:09:40;;;;;;;26.17;11.20;;;;;;;18.03;44.46;102465.44;5063583;28;20029;-45
2022/03/15 09:12:06;;;;;;;27.20;11.95;;;;;;;18.17;45.26;102461.84;5063092;28;20032;-47
2022/03/15 09:14:32;;;;;;;21.67;10.35;;;;;;;19.51;41.28;102470.09;5062063;28;20029;-49
2022/03/15 09:16:58;;;;;;;29.23;11.25;;;;;;;19.05;40.96;102466.00;5065227;28;20028;-50
2022/03/15 09:19:24;;;;;;;28.50;10.23;;;;;;;19.17;40.76;102468.16;5068007;28;20391;-50
2022/03/15 09:21:50;;;;;;;20.23;10.13;;;;;;;19.68;39.08;102470.63;5066426;28;20016;-47
2022/03/15 09:24:15;;;;;;;26.60;11.13;;;;;;;20.50;37.72;102466.03;5067196;28;20025;-46
2022/03/15 09:26:43;;;;;;;18.17;9.45;;;;;;;18.72;40.62;102457.53;5066823;28;20587;-46
2022/03/15 09:29:12;;;;;;;21.48;11.25;;;;;;;18.01;42.13;102452.00;5066909;28;20054;-47
2022/03/15 09:31:38;;;;;;;17.80;10.27;;;;;;;17.73;42.73;102455.41;5065814;28;20032;-48
2022/03/15 09:34:03;;;;;;;17.80;10.63;;;;;;;16.24;46.05;102448.00;5066323;28;20040;-45
2022/03/15 09:36:29;;;;;;;25.98;10.27;;;;;;;15.73;47.51;102451.19;5066151;28;20041;-47
2022/03/15 09:38:55;;;;;;;21.80;11.00;;;;;;;15.24;48.73;102451.31;5063917;28;20032;-48
2022/03/15 09:41:23;;;;;;;25.42;11.13;;;;;;;14.55;50.31;102437.34;5064657;28;20500;-50
2022/03/15 09:43:50;;;;;;;20.95;10.50;;;;;;;14.43;51.29;102441.41;5082316;28;20021;-47
2022/03/15 09:46:17;;;;;;;24.42;10.60;;;;;;;14.93;50.30;102424.13;5082789;28;20611;-47
2022/03/15 09:48:43;;;;;;;23.50;10.20;;;;;;;15.10;49.84;102425.75;5067811;28;20051;-50
2022/03/15 09:51:13;;;;;;;22.20;9.23;;;;;;;14.81;48.54;102426.34;5067458;28;20025;-46
2022/03/15 09:53:39;;;;;;;23.20;9.38;;;;;;;15.19;49.13;102417.59;5068354;28;20036;-47
2022/03/15 09:56:04;;;;;;;25.17;10.13;;;;;;;15.33;49.46;102414.19;5068669;28;20152;-47
2022/03/15 09:58:29;;;;;;;24.67;9.85;;;;;;;16.28;46.74;102416.75;5069206;28;20025;-47
2022/03/15 10:00:57;;;;;;;21.65;9.18;;;;;;;17.21;43.76;102404.66;5068549;28;20032;-48
2022/03/15 10:03:23;;;;;;;24.42;8.57;;;;;;;17.51;43.00;102401.94;5067501;28;20032;-46
2022/03/15 10:05:51;;;;;;;20.55;7.90;;;;;;;17.48;41.68;102397.72;5068256;28;20083;-49
2022/03/15 10:08:18;;;;;;;17.80;8.70;;;;;;;17.14;41.59;102395.59;5065657;28;20049;-46
2022/03/15 10:10:49;;;;;;;17.75;7.60;;;;;;;15.86;44.35;102393.59;5068180;28;20096;-47
2022/03/15 10:13:15;;;;;;;16.67;8.00;;;;;;;15.87;44.79;102398.00;5068324;28;20044;-48
2022/03/15 10:16:03;;;;;;;25.33;8.95;;;;;;;16.22;44.79;102391.16;5067392;28;20028;-48
2022/03/15 10:18:29;;;;;;;17.13;7.95;;;;;;;16.19;44.56;102377.06;5067198;28;20045;-49
2022/03/15 10:20:54;;;;;;;15.38;7.68;;;;;;;17.14;42.56;102384.72;5066674;28;20025;-49
2022/03/15 10:23:24;;;;;;;14.80;5.88;;;;;;;15.62;43.66;102385.56;5066131;28;20043;-50
2022/03/15 10:25:51;;;;;;;17.75;7.47;;;;;;;14.82;46.29;102370.25;5065986;28;20372;-48
2022/03/15 10:28:18;;;;;;;15.37;5.77;;;;;;;14.58;46.46;102377.41;5065718;28;20072;-47
2022/03/15 10:30:45;;;;;;;21.43;6.87;;;;;;;14.15;48.17;102379.41;5064563;28;20051;-45
2022/03/15 10:33:10;;;;;;;21.35;6.82;;;;;;;13.62;49.34;102377.97;5064768;28;20020;-45
2022/03/15 10:35:41;;;;;;;16.58;6.32;;;;;;;13.98;49.34;102373.16;5063665;28;20480;-48
2022/03/15 10:38:07;;;;;;;18.60;6.78;;;;;;;13.66;49.10;102368.50;5064642;28;20073;-47
2022/03/15 10:40:41;;;;;;;15.85;6.82;;;;;;;13.61;49.41;102373.53;5065388;28;20151;-50
2022/03/15 10:43:14;;;;;;;17.13;6.38;;;;;;;13.41;50.44;102358.63;5065785;28;20040;-46
2022/03/15 10:45:45;;;;;;;11.02;5.47;;;;;;;13.48;49.62;102360.50;5062957;28;20044;-47
2022/03/15 10:48:20;;;;;;;16.45;6.47;;;;;;;13.39;50.35;102354.22;5061930;28;20040;-49
2022/03/15 10:50:54;;;;;;;16.60;6.32;;;;;;;14.01;49.11;102344.91;5062881;28;20025;-46
2022/03/15 10:53:20;;;;;;;10.38;5.28;;;;;;;14.05;48.54;102355.19;5062552;28;20024;-48
2022/03/15 10:55:46;;;;;;;12.07;5.38;;;;;;;14.23;48.05;102344.22;5062044;28;20109;-48
2022/03/15 10:58:13;;;;;;;12.13;5.40;;;;;;;14.59;47.19;102343.03;5062937;28;20515;-49
2022/03/15 11:00:42;;;;;;;21.70;6.25;;;;;;;14.59;47.26;102341.19;5060912;28;20021;-47
2022/03/15 11:03:23;;;;;;;11.80;5.88;;;;;;;14.91;47.26;102331.28;5060991;28;20032;-46
2022/03/15 11:05:50;;;;;;;16.40;4.88;;;;;;;15.55;45.30;102334.72;5060138;28;20073;-49
2022/03/15 11:08:17;;;;;;;10.67;5.10;;;;;;;15.67;44.61;102331.59;5060421;28;20053;-47
2022/03/15 11:10:46;;;;;;;12.80;4.45;;;;;;;16.06;44.67;102330.66;5060421;28;20029;-47
2022/03/15 11:13:12;;;;;;;18.58;6.05;;;;;;;15.96;44.34;102328.22;5060722;28;20110;-46